createdAt,value
2022-08-25T00:00:01.888Z,4.20
2022-08-25T00:02:29.088Z,4.40
2022-08-25T00:04:55.792Z,4.18
2022-08-25T00:07:23.263Z,4.78
2022-08-25T00:09:49.913Z,4.90
2022-08-25T00:12:16.613Z,4.75
2022-08-25T00:14:43.358Z,5.35
2022-08-25T00:17:10.034Z,5.80
2022-08-25T00:19:37.210Z,5.47
2022-08-25T00:22:04.025Z,6.47
2022-08-25T00:24:30.718Z,6.35
2022-08-25T00:26:58.014Z,5.70
2022-08-25T00:29:25.111Z,6.55
2022-08-25T00:31:52.114Z,7.07
2022-08-25T00:34:21.157Z,7.53
2022-08-25T00:36:47.865Z,6.20
2022-08-25T00:39:14.517Z,6.72
2022-08-25T00:41:42.071Z,6.78
2022-08-25T00:44:10.089Z,7.15
2022-08-25T00:46:42.694Z,7.15
2022-08-25T00:49:36.567Z,7.05
2022-08-25T00:52:23.692Z,7.50
2022-08-25T00:55:08.127Z,7.55
2022-08-25T00:57:45.413Z,7.40
2022-08-25T01:00:18.789Z,6.07
2022-08-25T01:02:45.563Z,6.40
2022-08-25T01:05:12.271Z,7.30
2022-08-25T01:07:39.158Z,7.53
2022-08-25T01:10:06.825Z,6.50
2022-08-25T01:12:34.214Z,7.55
2022-08-25T01:15:01.023Z,6.57
2022-08-25T01:17:53.746Z,7.80
2022-08-25T01:20:22.164Z,7.63
2022-08-25T01:22:54.978Z,7.82
2022-08-25T01:25:43.609Z,7.90
2022-08-25T01:28:10.304Z,7.70
2022-08-25T01:30:37.007Z,7.18
2022-08-25T01:33:05.456Z,7.20
2022-08-25T01:35:32.127Z,7.68
2022-08-25T01:38:00.610Z,8.07
2022-08-25T01:40:27.647Z,7.57
2022-08-25T01:43:02.471Z,6.70
2022-08-25T01:45:29.197Z,7.68
2022-08-25T01:47:55.860Z,8.60
2022-08-25T01:50:22.585Z,8.43
2022-08-25T01:52:55.242Z,7.70
2022-08-25T01:55:22.085Z,7.93
2022-08-25T01:57:48.722Z,8.15
2022-08-25T02:00:15.996Z,8.13
2022-08-25T02:02:42.918Z,7.97
2022-08-25T02:05:11.309Z,7.82
2022-08-25T02:07:37.966Z,8.15
2022-08-25T02:10:05.495Z,6.88
2022-08-25T02:12:32.452Z,7.97
2022-08-25T02:15:00.217Z,7.90
2022-08-25T02:17:27.680Z,7.72
2022-08-25T02:19:54.329Z,8.30
2022-08-25T02:22:21.108Z,7.72
2022-08-25T02:24:47.805Z,7.75
2022-08-25T02:27:14.558Z,7.00
2022-08-25T02:29:41.351Z,7.60
2022-08-25T02:32:08.430Z,7.43
2022-08-25T02:34:37.442Z,7.97
2022-08-25T02:37:04.131Z,7.63
2022-08-25T02:39:30.812Z,7.60
2022-08-25T02:41:57.505Z,8.20
2022-08-25T02:44:24.185Z,8.10
2022-08-25T02:46:50.941Z,8.02
2022-08-25T02:49:17.589Z,8.20
2022-08-25T02:51:44.232Z,7.95
2022-08-25T02:54:10.899Z,7.80
2022-08-25T02:56:37.573Z,8.30
2022-08-25T02:59:04.308Z,7.78
2022-08-25T03:01:31.506Z,7.97
2022-08-25T03:03:58.304Z,7.80
2022-08-25T03:06:25.061Z,8.45
2022-08-25T03:08:52.174Z,7.20
2022-08-25T03:11:18.815Z,7.93
2022-08-25T03:13:45.593Z,7.25
2022-08-25T03:16:12.577Z,8.30
2022-08-25T03:18:41.378Z,8.15
2022-08-25T03:21:09.047Z,8.18
2022-08-25T03:23:35.679Z,7.97
2022-08-25T03:26:02.410Z,8.55
2022-08-25T03:28:30.106Z,8.07
2022-08-25T03:30:57.346Z,8.13
2022-08-25T03:33:24.032Z,8.52
2022-08-25T03:35:50.669Z,8.25
2022-08-25T03:38:17.313Z,8.00
2022-08-25T03:40:43.992Z,8.20
2022-08-25T03:43:10.791Z,8.63
2022-08-25T03:45:43.367Z,8.88
2022-08-25T03:48:10.216Z,8.90
2022-08-25T03:50:36.984Z,8.70
2022-08-25T03:53:03.812Z,9.25
2022-08-25T03:55:30.502Z,8.75
2022-08-25T03:57:59.467Z,9.23
2022-08-25T04:00:26.173Z,8.35
2022-08-25T04:02:52.844Z,9.20
2022-08-25T04:05:19.543Z,9.63
2022-08-25T04:07:46.888Z,9.13
2022-08-25T04:10:13.610Z,9.15
2022-08-25T04:12:40.346Z,9.73
2022-08-25T04:15:07.546Z,9.23
2022-08-25T04:17:36.362Z,9.48
2022-08-25T04:20:03.992Z,9.43
2022-08-25T04:22:30.671Z,10.00
2022-08-25T04:24:59.403Z,9.95
2022-08-25T04:27:26.110Z,9.55
2022-08-25T04:29:52.757Z,9.95
2022-08-25T04:32:19.438Z,10.40
2022-08-25T04:34:46.110Z,10.18
2022-08-25T04:37:12.820Z,10.32
2022-08-25T04:39:39.570Z,10.10
2022-08-25T04:42:06.411Z,8.98
2022-08-25T04:44:33.195Z,8.70
2022-08-25T04:47:00.478Z,9.80
2022-08-25T04:49:27.187Z,10.60
2022-08-25T04:51:53.881Z,9.98
2022-08-25T04:54:20.553Z,10.82
2022-08-25T04:56:47.526Z,11.30
2022-08-25T04:59:14.886Z,10.82
2022-08-25T05:01:41.882Z,10.13
2022-08-25T05:04:17.792Z,10.30
2022-08-25T05:07:08.067Z,10.32
2022-08-25T05:09:34.946Z,10.60
2022-08-25T05:12:02.220Z,9.90
2022-08-25T05:14:31.541Z,10.05
2022-08-25T05:16:58.674Z,9.02
2022-08-25T05:19:25.924Z,8.65
2022-08-25T05:21:52.730Z,7.82
2022-08-25T05:24:19.703Z,8.60
2022-08-25T05:26:46.351Z,8.60
2022-08-25T05:29:13.126Z,8.25
2022-08-25T05:31:43.962Z,7.15
2022-08-25T05:34:10.854Z,6.75
2022-08-25T05:36:37.576Z,6.70
2022-08-25T05:39:04.478Z,6.55
2022-08-25T05:41:31.220Z,6.95
2022-08-25T05:43:57.931Z,6.97
2022-08-25T05:46:24.846Z,7.00
2022-08-25T05:48:51.743Z,6.80
2022-08-25T05:51:18.431Z,6.38
2022-08-25T05:53:46.433Z,6.45
2022-08-25T05:56:13.238Z,6.47
2022-08-25T05:58:40.395Z,6.93
2022-08-25T06:01:07.240Z,6.40
2022-08-25T06:03:33.983Z,6.65
2022-08-25T06:06:09.848Z,6.43
2022-08-25T06:08:36.590Z,6.28
2022-08-25T06:11:06.821Z,6.40
2022-08-25T06:13:33.936Z,7.30
2022-08-25T06:16:00.628Z,7.28
2022-08-25T06:18:27.460Z,6.75
2022-08-25T06:20:54.111Z,7.32
2022-08-25T06:23:20.868Z,6.57
2022-08-25T06:25:51.938Z,7.07
2022-08-25T06:28:18.821Z,6.05
2022-08-25T06:30:59.088Z,5.68
2022-08-25T06:33:25.751Z,4.90
2022-08-25T06:36:08.057Z,6.47
2022-08-25T06:38:34.775Z,5.90
2022-08-25T06:41:05.240Z,5.43
2022-08-25T06:43:32.390Z,5.82
2022-08-25T06:46:07.436Z,5.63
2022-08-25T06:48:34.239Z,5.78
2022-08-25T06:51:00.887Z,6.07
2022-08-25T06:53:27.575Z,6.18
2022-08-25T06:56:06.368Z,6.88
2022-08-25T06:58:33.403Z,6.78
2022-08-25T07:01:19.590Z,6.43
2022-08-25T07:03:46.494Z,7.15
2022-08-25T07:06:14.405Z,6.70
2022-08-25T07:08:43.194Z,7.00
2022-08-25T07:11:10.258Z,5.97
2022-08-25T07:13:43.628Z,6.47
2022-08-25T07:16:10.403Z,5.68
2022-08-25T07:18:37.118Z,5.93
2022-08-25T07:21:03.857Z,6.15
2022-08-25T07:23:30.705Z,5.28
2022-08-25T07:25:57.368Z,5.72
2022-08-25T07:28:24.118Z,5.00
2022-08-25T07:30:52.053Z,5.43
2022-08-25T07:33:18.983Z,5.50
2022-08-25T07:35:46.003Z,4.80
2022-08-25T07:41:04.033Z,4.88
2022-08-25T07:43:33.743Z,5.07
2022-08-25T07:46:06.501Z,4.88
2022-08-25T07:48:33.240Z,4.68
2022-08-25T07:51:01.790Z,4.63
2022-08-25T07:53:30.910Z,4.47
2022-08-25T07:55:57.583Z,4.32
2022-08-25T07:58:26.425Z,4.13
2022-08-25T08:00:53.533Z,3.83
2022-08-25T08:03:42.214Z,4.05
2022-08-25T08:06:08.506Z,3.88
2022-08-25T08:08:37.918Z,2.75
2022-08-25T08:11:05.590Z,3.50
2022-08-25T08:13:36.678Z,2.95
2022-08-25T08:16:11.804Z,3.05
2022-08-25T08:18:40.504Z,3.03
2022-08-25T08:21:19.115Z,3.20
2022-08-25T08:23:46.995Z,3.47
2022-08-25T08:26:14.073Z,3.33
2022-08-25T08:28:40.804Z,3.33
2022-08-25T08:31:10.749Z,2.67
2022-08-25T08:33:40.942Z,2.90
2022-08-25T08:36:09.982Z,2.67
2022-08-25T08:38:36.977Z,2.70
2022-08-25T08:41:25.021Z,3.00
2022-08-25T08:44:02.024Z,2.60
2022-08-25T08:46:34.778Z,2.38
2022-08-25T08:49:04.136Z,2.42
2022-08-25T08:51:38.117Z,2.38
2022-08-25T08:54:16.675Z,2.35
2022-08-25T08:56:48.304Z,2.63
2022-08-25T08:59:20.909Z,2.80
2022-08-25T09:01:55.749Z,2.33
2022-08-25T09:04:48.221Z,2.58
2022-08-25T09:07:20.753Z,2.20
2022-08-25T09:09:47.625Z,2.28
2022-08-25T09:12:37.319Z,2.28
2022-08-25T09:15:41.035Z,2.53
2022-08-25T09:18:22.710Z,2.30
2022-08-25T09:24:01.008Z,2.45
2022-08-25T09:26:49.948Z,2.70
2022-08-25T09:29:27.011Z,2.38
2022-08-25T09:31:58.122Z,2.78
2022-08-25T09:34:27.771Z,2.65
2022-08-25T09:36:54.828Z,2.35
2022-08-25T09:39:23.514Z,2.00
2022-08-25T09:41:57.648Z,2.25
2022-08-25T09:44:41.101Z,1.95
2022-08-25T09:47:19.872Z,2.17
2022-08-25T09:49:53.842Z,1.85
2022-08-25T09:52:41.723Z,2.60
2022-08-25T09:55:08.547Z,1.80
2022-08-25T09:57:53.835Z,2.20
2022-08-25T10:00:22.201Z,1.80
2022-08-25T10:03:15.377Z,1.73
2022-08-25T10:08:34.591Z,1.83
2022-08-25T10:11:03.630Z,1.73
2022-08-25T10:13:38.337Z,1.70
2022-08-25T10:16:20.643Z,2.05
2022-08-25T10:19:25.182Z,1.75
2022-08-25T10:22:11.216Z,1.67
2022-08-25T10:24:38.985Z,1.55
2022-08-25T10:27:13.268Z,1.58
2022-08-25T10:30:08.398Z,2.20
2022-08-25T10:32:35.043Z,1.73
2022-08-25T10:35:12.190Z,1.92
2022-08-25T10:37:57.784Z,1.67
2022-08-25T10:40:52.412Z,1.55
2022-08-25T10:43:48.080Z,1.60
2022-08-25T10:46:33.284Z,1.77
2022-08-25T10:49:25.606Z,1.90
2022-08-25T10:52:02.900Z,1.90
2022-08-25T10:54:32.072Z,1.65
2022-08-25T10:57:16.312Z,1.60
2022-08-25T11:00:01.193Z,1.45
2022-08-25T11:02:30.781Z,1.40
2022-08-25T11:05:07.263Z,1.40
2022-08-25T11:07:38.598Z,1.40
2022-08-25T11:10:25.036Z,1.70
2022-08-25T11:12:56.570Z,1.40
2022-08-25T11:15:36.562Z,1.52
2022-08-25T11:18:14.761Z,1.40
2022-08-25T11:20:56.307Z,1.27
2022-08-25T11:23:40.086Z,1.42
2022-08-25T11:26:14.850Z,1.60
2022-08-25T11:29:00.389Z,1.10
2022-08-25T11:31:27.102Z,1.20
2022-08-25T11:33:54.341Z,1.50
2022-08-25T11:36:30.483Z,1.10
2022-08-25T11:39:18.395Z,1.27
2022-08-25T11:41:57.563Z,1.00
2022-08-25T11:44:36.067Z,1.50
2022-08-25T11:47:27.884Z,1.00
2022-08-25T11:50:05.396Z,0.90
2022-08-25T11:52:38.848Z,0.90
2022-08-25T11:55:28.835Z,0.93
2022-08-25T11:58:21.311Z,1.58
2022-08-25T12:00:50.068Z,1.10
2022-08-25T12:03:35.054Z,1.05
2022-08-25T12:06:21.815Z,1.27
2022-08-25T12:09:12.935Z,0.90
2022-08-25T12:11:45.685Z,0.98
2022-08-25T12:14:37.024Z,1.10
2022-08-25T12:17:16.511Z,1.10
2022-08-25T12:19:43.177Z,1.08
2022-08-25T12:22:29.787Z,0.90
2022-08-25T12:25:00.340Z,1.50
2022-08-25T12:27:50.455Z,1.63
2022-08-25T12:30:28.656Z,1.30
2022-08-25T12:33:13.632Z,1.05
2022-08-25T12:35:49.167Z,1.05
2022-08-25T12:38:37.824Z,0.90
2022-08-25T12:41:18.176Z,0.90
2022-08-25T12:43:49.101Z,1.10
2022-08-25T12:46:21.716Z,0.88
2022-08-25T12:49:28.906Z,0.93
2022-08-25T12:52:16.730Z,1.10
2022-08-25T12:54:53.585Z,1.17
2022-08-25T12:57:43.280Z,1.92
2022-08-25T13:00:32.100Z,1.80
2022-08-25T13:03:04.167Z,1.80
2022-08-25T13:05:44.312Z,1.60
2022-08-25T13:08:46.801Z,1.58
2022-08-25T13:11:15.646Z,2.40
2022-08-25T13:13:56.765Z,2.30
2022-08-25T13:16:29.524Z,2.20
2022-08-25T13:18:57.547Z,2.50
2022-08-25T13:21:39.316Z,3.40
2022-08-25T13:24:09.585Z,2.47
2022-08-25T13:26:48.175Z,2.35
2022-08-25T13:29:21.186Z,2.20
2022-08-25T13:32:02.014Z,2.80
2022-08-25T13:34:34.765Z,2.13
2022-08-25T13:37:23.468Z,2.28
2022-08-25T13:39:56.601Z,2.00
2022-08-25T13:42:28.746Z,2.47
2022-08-25T13:44:56.040Z,2.33
2022-08-25T13:47:55.834Z,2.35
2022-08-25T13:50:28.465Z,3.30
2022-08-25T13:53:00.499Z,3.83
2022-08-25T13:55:51.105Z,2.75
2022-08-25T13:58:38.638Z,2.60
2022-08-25T14:01:22.286Z,2.83
2022-08-25T14:04:26.112Z,3.25
2022-08-25T14:07:21.687Z,2.55
2022-08-25T14:09:58.831Z,3.42
2022-08-25T14:12:31.410Z,3.53
2022-08-25T14:15:13.492Z,3.40
2022-08-25T14:17:42.234Z,2.70
2022-08-25T14:20:20.595Z,2.97
2022-08-25T14:22:49.595Z,2.30
2022-08-25T14:28:03.512Z,3.13
2022-08-25T14:30:31.382Z,2.70
2022-08-25T14:32:58.038Z,2.88
2022-08-25T14:35:24.878Z,3.00
2022-08-25T14:37:52.056Z,2.92
2022-08-25T14:40:18.874Z,2.58
2022-08-25T14:42:48.800Z,2.03
2022-08-25T14:45:18.601Z,2.30
2022-08-25T14:47:45.546Z,2.35
2022-08-25T14:50:24.107Z,2.85
2022-08-25T14:52:51.996Z,4.10
2022-08-25T14:55:27.663Z,3.75
2022-08-25T14:58:01.157Z,3.33
2022-08-25T15:00:28.045Z,2.55
2022-08-25T15:02:54.782Z,4.65
2022-08-25T15:05:24.132Z,5.50
2022-08-25T15:07:51.906Z,6.97
2022-08-25T15:10:19.493Z,8.32
2022-08-25T15:12:48.559Z,8.25
2022-08-25T15:15:20.797Z,9.82
2022-08-25T15:17:49.431Z,10.02
2022-08-25T15:20:19.732Z,11.65
2022-08-25T15:22:46.529Z,12.57
2022-08-25T15:25:14.381Z,12.38
2022-08-25T15:27:41.086Z,13.15
2022-08-25T15:30:08.508Z,13.57
2022-08-25T15:32:35.198Z,13.93
2022-08-25T15:35:01.987Z,14.80
2022-08-25T15:37:28.777Z,14.07
2022-08-25T15:39:56.573Z,13.82
2022-08-25T15:42:23.315Z,14.13
2022-08-25T15:44:52.854Z,15.48
2022-08-25T15:47:20.654Z,14.55
2022-08-25T15:49:47.357Z,14.10
2022-08-25T15:52:14.059Z,14.18
2022-08-25T15:54:40.946Z,13.65
2022-08-25T15:57:09.972Z,15.15
2022-08-25T15:59:41.130Z,17.27
2022-08-25T16:02:11.556Z,15.73
2022-08-25T16:04:42.107Z,14.50
2022-08-25T16:07:09.573Z,17.27
2022-08-25T16:09:40.703Z,15.63
2022-08-25T16:12:08.761Z,15.07
2022-08-25T16:14:35.717Z,13.32
2022-08-25T16:17:02.463Z,14.70
2022-08-25T16:19:29.232Z,14.88
2022-08-25T16:21:56.379Z,13.75
2022-08-25T16:24:23.301Z,14.48
2022-08-25T16:26:50.344Z,14.10
2022-08-25T16:29:18.631Z,14.70
2022-08-25T16:31:53.056Z,16.33
2022-08-25T16:34:20.428Z,15.98
2022-08-25T16:36:47.103Z,17.20
2022-08-25T16:39:16.368Z,17.38
2022-08-25T16:41:43.077Z,17.45
2022-08-25T16:44:11.155Z,19.33
2022-08-25T16:46:38.430Z,18.95
2022-08-25T16:49:07.569Z,16.63
2022-08-25T16:51:34.221Z,16.02
2022-08-25T16:54:00.909Z,16.40
2022-08-25T16:56:29.077Z,15.52
2022-08-25T16:58:57.053Z,15.88
2022-08-25T17:01:23.914Z,15.52
2022-08-25T17:03:54.613Z,14.70
2022-08-25T17:06:22.959Z,16.42
2022-08-25T17:08:49.746Z,18.08
2022-08-25T17:11:19.451Z,16.58
2022-08-25T17:13:47.990Z,18.25
2022-08-25T17:16:17.005Z,19.70
2022-08-25T17:18:47.812Z,18.80
2022-08-25T17:21:24.022Z,19.42
2022-08-25T17:23:51.519Z,16.98
2022-08-25T17:26:18.185Z,19.02
2022-08-25T17:28:45.687Z,19.55
2022-08-25T17:31:13.120Z,18.67
2022-08-25T17:33:42.952Z,19.17
2022-08-25T17:36:12.172Z,20.20
2022-08-25T17:38:43.351Z,20.02
2022-08-25T17:41:10.164Z,18.65
2022-08-25T17:43:39.655Z,19.23
2022-08-25T17:46:07.253Z,17.25
2022-08-25T17:48:34.601Z,17.98
2022-08-25T17:51:01.290Z,16.90
2022-08-25T17:53:28.366Z,17.05
2022-08-25T17:55:59.982Z,19.63
2022-08-25T17:58:27.068Z,19.80
2022-08-25T18:00:54.705Z,18.67
2022-08-25T18:03:21.446Z,20.30
2022-08-25T18:05:49.166Z,16.67
2022-08-25T18:08:15.946Z,14.35
2022-08-25T18:10:44.015Z,14.00
2022-08-25T18:13:10.862Z,12.23
2022-08-25T18:15:37.632Z,13.23
2022-08-25T18:18:10.146Z,11.95
2022-08-25T18:20:39.646Z,12.13
2022-08-25T18:23:09.596Z,12.27
2022-08-25T18:25:36.651Z,10.70
2022-08-25T18:28:08.727Z,10.40
2022-08-25T18:30:36.224Z,10.70
2022-08-25T18:33:02.926Z,10.27
2022-08-25T18:35:29.707Z,10.07
2022-08-25T18:37:56.500Z,10.55
2022-08-25T18:40:23.396Z,10.68
2022-08-25T18:42:55.535Z,10.00
2022-08-25T18:45:25.386Z,8.65
2022-08-25T18:47:54.225Z,9.77
2022-08-25T18:50:21.295Z,8.02
2022-08-25T18:52:48.527Z,8.38
2022-08-25T18:55:15.443Z,7.93
2022-08-25T18:57:42.808Z,9.10
2022-08-25T19:00:10.656Z,7.35
2022-08-25T19:02:37.467Z,6.05
2022-08-25T19:05:04.968Z,5.60
2022-08-25T19:07:34.505Z,5.97
2022-08-25T19:10:01.207Z,6.10
2022-08-25T19:12:27.917Z,6.10
2022-08-25T19:14:55.793Z,5.13
2022-08-25T19:17:24.726Z,5.30
2022-08-25T19:19:51.573Z,5.55
2022-08-25T19:22:40.298Z,4.25
2022-08-25T19:25:05.480Z,5.47
2022-08-25T19:27:32.679Z,5.75
2022-08-25T19:29:59.760Z,4.85
2022-08-25T19:32:27.410Z,5.75
2022-08-25T19:34:54.143Z,5.57
2022-08-25T19:37:22.834Z,5.88
2022-08-25T19:39:53.188Z,4.40
2022-08-25T19:42:37.194Z,4.70
2022-08-25T19:45:06.858Z,5.30
2022-08-25T19:47:33.565Z,5.82
2022-08-25T19:50:00.324Z,4.95
2022-08-25T19:52:27.096Z,5.20
2022-08-25T19:55:00.155Z,5.95
2022-08-25T19:57:28.304Z,5.88
2022-08-25T20:00:14.707Z,5.97
2022-08-25T20:02:41.945Z,7.18
2022-08-25T20:05:09.026Z,7.55
2022-08-25T20:07:38.462Z,6.97
2022-08-25T20:10:06.324Z,7.07
2022-08-25T20:12:48.092Z,7.88
2022-08-25T20:15:16.487Z,7.15
2022-08-25T20:17:43.501Z,7.90
2022-08-25T20:20:13.736Z,7.95
2022-08-25T20:22:40.764Z,7.82
2022-08-25T20:25:13.340Z,7.70
2022-08-25T20:27:46.146Z,6.88
2022-08-25T20:30:18.571Z,7.03
2022-08-25T20:32:45.676Z,5.20
2022-08-25T20:35:13.151Z,5.75
2022-08-25T20:37:43.600Z,5.30
2022-08-25T20:40:14.501Z,5.40
2022-08-25T20:42:43.384Z,4.80
2022-08-25T20:45:13.774Z,5.13
2022-08-25T20:47:40.493Z,5.13
2022-08-25T20:50:08.815Z,4.70
2022-08-25T20:52:35.566Z,4.82
2022-08-25T20:55:07.089Z,5.25
2022-08-25T20:57:33.910Z,5.05
2022-08-25T21:00:00.917Z,4.80
2022-08-25T21:02:28.316Z,4.72
2022-08-25T21:04:57.047Z,5.60
2022-08-25T21:07:23.953Z,5.25
2022-08-25T21:09:50.865Z,5.65
2022-08-25T21:12:18.316Z,5.07
2022-08-25T21:14:45.086Z,4.82
2022-08-25T21:17:13.375Z,4.25
2022-08-25T21:19:56.306Z,4.15
2022-08-25T21:22:22.984Z,3.65
2022-08-25T21:24:49.932Z,3.63
2022-08-25T21:27:18.048Z,2.95
2022-08-25T21:29:54.374Z,2.80
2022-08-25T21:32:22.640Z,2.60
2022-08-25T21:34:53.800Z,2.92
2022-08-25T21:37:20.505Z,2.10
2022-08-25T21:39:50.544Z,2.15
2022-08-25T21:42:17.933Z,1.80
2022-08-25T21:44:44.648Z,1.90
2022-08-25T21:47:12.576Z,2.10
2022-08-25T21:49:39.345Z,1.95
2022-08-25T21:52:06.114Z,2.05
2022-08-25T21:54:32.928Z,1.88
2022-08-25T21:57:01.042Z,1.83
2022-08-25T21:59:29.889Z,1.88
2022-08-25T22:02:08.040Z,1.48
2022-08-25T22:04:36.341Z,1.38
2022-08-25T22:07:03.207Z,1.70
2022-08-25T22:09:32.949Z,1.63
2022-08-25T22:11:59.859Z,1.27
2022-08-25T22:14:26.660Z,1.38
2022-08-25T22:16:54.209Z,1.65
2022-08-25T22:19:21.132Z,1.60
2022-08-25T22:21:47.768Z,1.58
2022-08-25T22:24:15.104Z,1.70
2022-08-25T22:26:41.800Z,1.95
2022-08-25T22:29:23.616Z,1.77
2022-08-25T22:31:59.611Z,1.40
2022-08-25T22:34:30.607Z,1.40
2022-08-25T22:37:00.213Z,1.30
2022-08-25T22:39:27.257Z,1.50
2022-08-25T22:41:53.933Z,1.60
2022-08-25T22:44:22.077Z,1.40
2022-08-25T22:46:48.847Z,1.25
2022-08-25T22:49:15.522Z,1.17
2022-08-25T22:51:49.459Z,1.55
2022-08-25T22:54:16.227Z,1.40
2022-08-25T22:56:42.935Z,1.13
2022-08-25T22:59:11.413Z,1.10
2022-08-25T23:01:38.263Z,1.20
2022-08-25T23:04:06.673Z,1.27
2022-08-25T23:06:33.627Z,0.93
2022-08-25T23:09:00.471Z,1.02
2022-08-25T23:11:29.053Z,0.98
2022-08-25T23:13:56.481Z,1.00
2022-08-25T23:16:23.322Z,0.80
2022-08-25T23:18:50.032Z,1.10
2022-08-25T23:21:16.759Z,1.00
2022-08-25T23:23:50.990Z,0.80
2022-08-25T23:26:21.745Z,0.88
2022-08-25T23:28:48.480Z,0.82
2022-08-25T23:31:15.840Z,0.95
2022-08-25T23:33:42.669Z,0.70
2022-08-25T23:38:40.248Z,0.90
2022-08-25T23:41:07.820Z,1.10
2022-08-25T23:43:35.695Z,0.82
2022-08-25T23:46:02.772Z,0.93
2022-08-25T23:48:29.601Z,0.98
2022-08-25T23:50:56.319Z,0.98
2022-08-25T23:53:24.357Z,0.82
2022-08-25T23:55:53.995Z,0.80
2022-08-25T23:58:21.048Z,0.98
